Weather at Inverness Airport

Public forecast

Using degrees Celsius for public forecast. Weather courtesy of forecast.io.

Current aviation weather report (METAR) for Inverness Airport

Report is more than 6 hours old.

2022/11/14 15:20 (retrieved 2 years ago)

EGPE 141520Z 13013KT 9999 FEW015 13/08 Q1002

Closest aviation forecast (TAF) to Inverness Airport

Forecast is more than 12 hours old.

Closest forecast is RAF Lossiemouth, 24.8 nm (45.9 km) ENE.

2023/02/22 21:36 (retrieved 1 year ago)

TAF EGQS 221926Z 2221/2315 32012KT 9999 FEW040 PROB40 TEMPO 2307/2315 24016G26KT PROB30 TEMPO 2312/2315 SCT020